Time,TemperatureF,DewpointF,PressureIn,WindDirection,WindDirectionDegrees,WindSpeedMPH,WindSpeedGustMPH,Humidity,HourlyPrecipIn,Conditions,Clouds,dailyrainin,SoftwareType,DateUTC
2013-01-24 00:00:00,8.1,5.9,30.19,West,263,0.0,0.0,90,0.00,,OVC110,0.00,VWS V14.01,2013-01-24 05:00:00,
2013-01-24 00:01:00,8.2,6.0,30.19,West,263,0.0,0.0,90,0.00,,OVC100,0.00,VWS V14.01,2013-01-24 05:01:00,
2013-01-24 00:03:00,8.1,5.9,30.19,West,263,0.0,0.0,91,0.00,,OVC100,0.00,VWS V14.01,2013-01-24 05:03:00,
2013-01-24 00:08:00,7.9,5.8,30.18,West,263,0.0,0.0,91,0.00,,OVC100,0.00,VWS V14.01,2013-01-24 05:08:00,
2013-01-24 00:13:00,7.8,5.7,30.18,West,263,0.0,0.0,91,0.00,,OVC100,0.00,VWS V14.01,2013-01-24 05:13:00,
2013-01-24 00:18:00,8.1,5.9,30.18,West,263,0.0,0.0,91,0.00,,OVC100,0.00,VWS V14.01,2013-01-24 05:18:00,
2013-01-24 00:23:00,7.8,5.7,30.18,West,263,0.0,0.0,91,0.00,,OVC100,0.00,VWS V14.01,2013-01-24 05:23:00,
2013-01-24 00:28:00,7.9,5.8,30.18,West,263,0.0,0.0,91,0.00,,OVC100,0.00,VWS V14.01,2013-01-24 05:28:00,
2013-01-24 00:33:00,7.8,5.8,30.17,West,263,0.0,0.0,91,0.00,,OVC100,0.00,VWS V14.01,2013-01-24 05:33:00,
2013-01-24 00:38:00,7.8,5.9,30.17,West,263,0.0,0.0,92,0.00,,OVC100,0.00,VWS V14.01,2013-01-24 05:38:00,
2013-01-24 00:43:00,7.8,5.9,30.17,West,263,0.0,0.0,92,0.00,,OVC100,0.00,VWS V14.01,2013-01-24 05:43:00,
2013-01-24 00:48:00,7.6,5.7,30.17,West,263,0.0,0.0,92,0.00,,OVC100,0.00,VWS V14.01,2013-01-24 05:48:00,
2013-01-24 00:53:00,7.7,5.8,30.16,West,263,0.0,0.0,92,0.00,,OVC100,0.00,VWS V14.01,2013-01-24 05:53:00,
2013-01-24 00:58:00,7.8,5.9,30.16,West,263,0.0,0.0,92,0.00,,OVC100,0.00,VWS V14.01,2013-01-24 05:58:00,
2013-01-24 01:03:00,7.9,6.2,30.16,West,263,0.0,0.0,93,0.00,,OVC090,0.00,VWS V14.01,2013-01-24 06:03:00,
2013-01-24 01:08:00,7.9,6.2,30.16,West,263,0.0,0.0,92,0.00,,OVC090,0.00,VWS V14.01,2013-01-24 06:08:00,
2013-01-24 01:13:00,8.0,6.3,30.16,West,263,0.0,0.0,93,0.00,,OVC090,0.00,VWS V14.01,2013-01-24 06:13:00,
2013-01-24 01:18:00,8.1,6.4,30.16,West,263,0.0,0.0,92,0.00,,OVC090,0.00,VWS V14.01,2013-01-24 06:18:00,
2013-01-24 01:23:00,8.0,6.3,30.16,West,263,0.0,0.0,92,0.00,,OVC090,0.00,VWS V14.01,2013-01-24 06:23:00,
2013-01-24 01:28:00,8.3,6.5,30.15,West,263,0.0,0.0,92,0.00,,OVC090,0.00,VWS V14.01,2013-01-24 06:28:00,
2013-01-24 01:33:00,8.1,6.3,30.15,West,263,0.0,0.0,92,0.00,,OVC090,0.00,VWS V14.01,2013-01-24 06:33:00,
2013-01-24 01:38:00,8.2,6.4,30.15,West,263,0.0,0.0,92,0.00,,OVC090,0.00,VWS V14.01,2013-01-24 06:38:00,
2013-01-24 01:43:00,8.4,6.5,30.15,West,263,0.0,0.0,92,0.00,,OVC090,0.00,VWS V14.01,2013-01-24 06:43:00,
2013-01-24 01:48:00,8.2,6.3,30.15,West,263,0.0,0.0,92,0.00,,OVC090,0.00,VWS V14.01,2013-01-24 06:48:00,
2013-01-24 01:53:00,8.1,6.1,30.15,West,263,0.0,0.0,92,0.00,,OVC090,0.00,VWS V14.01,2013-01-24 06:53:00,
2013-01-24 01:58:00,8.3,6.3,30.15,West,263,0.0,0.0,91,0.00,,OVC090,0.00,VWS V14.01,2013-01-24 06:58:00,
2013-01-24 02:03:00,8.3,6.3,30.15,West,263,0.0,0.0,91,0.00,,OVC100,0.00,VWS V14.01,2013-01-24 07:03:00,
2013-01-24 02:08:00,8.3,6.2,30.15,West,263,0.0,0.0,91,0.00,,OVC100,0.00,VWS V14.01,2013-01-24 07:08:00,
2013-01-24 02:13:00,8.4,6.3,30.15,West,263,0.0,0.0,91,0.00,,OVC100,0.00,VWS V14.01,2013-01-24 07:13:00,
2013-01-24 02:18:00,8.4,6.3,30.15,West,263,0.0,0.0,91,0.00,,OVC100,0.00,VWS V14.01,2013-01-24 07:18:00,
2013-01-24 02:23:00,8.6,6.5,30.15,West,263,0.0,0.0,91,0.00,,OVC100,0.00,VWS V14.01,2013-01-24 07:23:00,
2013-01-24 02:28:00,8.5,6.4,30.15,West,263,0.0,0.0,91,0.00,,OVC100,0.00,VWS V14.01,2013-01-24 07:28:00,
2013-01-24 02:33:00,8.8,6.7,30.15,West,263,0.0,0.0,91,0.00,,OVC100,0.00,VWS V14.01,2013-01-24 07:33:00,
2013-01-24 02:38:00,8.8,6.7,30.15,West,263,0.0,0.0,91,0.00,,OVC100,0.00,VWS V14.01,2013-01-24 07:38:00,
2013-01-24 02:43:00,8.8,6.7,30.15,West,263,0.0,0.0,91,0.00,,OVC100,0.00,VWS V14.01,2013-01-24 07:43:00,
2013-01-24 02:48:00,8.6,6.5,30.15,West,263,0.0,0.0,91,0.00,,OVC100,0.00,VWS V14.01,2013-01-24 07:48:00,
2013-01-24 02:53:00,8.6,6.5,30.15,West,263,0.0,0.0,91,0.00,,OVC100,0.00,VWS V14.01,2013-01-24 07:53:00,
2013-01-24 02:58:00,8.5,6.3,30.15,West,263,0.0,0.0,91,0.00,,OVC100,0.00,VWS V14.01,2013-01-24 07:58:00,
2013-01-24 03:03:00,8.4,6.3,30.15,West,263,0.0,0.0,91,0.00,,OVC095,0.00,VWS V14.01,2013-01-24 08:03:00,
2013-01-24 03:08:00,8.4,6.3,30.15,West,263,0.0,0.0,91,0.00,,OVC095,0.00,VWS V14.01,2013-01-24 08:08:00,
2013-01-24 03:13:00,8.3,6.2,30.15,West,263,0.0,0.0,91,0.00,,OVC095,0.00,VWS V14.01,2013-01-24 08:13:00,
2013-01-24 03:18:00,8.3,6.3,30.15,West,263,0.0,0.0,91,0.00,,OVC095,0.00,VWS V14.01,2013-01-24 08:18:00,
2013-01-24 03:23:00,8.5,6.5,30.15,West,263,0.0,0.0,91,0.00,,OVC095,0.00,VWS V14.01,2013-01-24 08:23:00,
2013-01-24 03:28:00,8.6,6.6,30.15,West,263,0.0,0.0,92,0.00,,OVC095,0.00,VWS V14.01,2013-01-24 08:28:00,
2013-01-24 03:33:00,8.6,6.7,30.15,West,263,0.0,0.0,92,0.00,,OVC095,0.00,VWS V14.01,2013-01-24 08:33:00,
2013-01-24 03:38:00,8.5,6.6,30.15,West,263,0.0,0.0,92,0.00,,OVC095,0.00,VWS V14.01,2013-01-24 08:38:00,
2013-01-24 03:43:00,8.7,6.8,30.15,West,263,0.0,0.0,92,0.00,,OVC095,0.00,VWS V14.01,2013-01-24 08:43:00,
2013-01-24 03:48:00,8.9,7.0,30.15,West,263,0.0,0.0,92,0.00,,OVC095,0.00,VWS V14.01,2013-01-24 08:48:00,
2013-01-24 03:53:00,9.0,7.1,30.15,West,263,0.0,0.0,92,0.00,,OVC095,0.00,VWS V14.01,2013-01-24 08:53:00,
2013-01-24 03:58:00,9.4,7.5,30.15,West,263,0.0,0.0,92,0.00,,OVC095,0.00,VWS V14.01,2013-01-24 08:58:00,
2013-01-24 04:03:00,9.1,7.2,30.15,West,263,0.0,0.0,92,0.00,,OVC090,0.00,VWS V14.01,2013-01-24 09:03:00,
2013-01-24 04:08:00,9.4,7.5,30.15,West,263,0.0,0.0,92,0.00,,OVC090,0.00,VWS V14.01,2013-01-24 09:08:00,
2013-01-24 04:13:00,9.5,7.7,30.15,West,263,0.0,0.0,92,0.00,,OVC090,0.00,VWS V14.01,2013-01-24 09:13:00,
2013-01-24 04:19:00,9.7,7.8,30.15,West,263,0.0,0.0,92,0.00,,OVC090,0.00,VWS V14.01,2013-01-24 09:19:00,
2013-01-24 04:24:00,9.9,8.0,30.16,West,263,0.0,0.0,92,0.00,,OVC090,0.00,VWS V14.01,2013-01-24 09:24:00,
2013-01-24 04:29:00,9.7,7.8,30.16,West,263,0.0,0.0,92,0.00,,OVC090,0.00,VWS V14.01,2013-01-24 09:29:00,
2013-01-24 04:34:00,9.7,7.8,30.16,West,263,0.0,0.0,92,0.00,,OVC090,0.00,VWS V14.01,2013-01-24 09:34:00,
2013-01-24 04:39:00,9.6,7.7,30.16,West,263,0.0,0.0,92,0.00,,OVC090,0.00,VWS V14.01,2013-01-24 09:39:00,
2013-01-24 04:44:00,9.7,7.8,30.16,West,263,0.0,0.0,92,0.00,,OVC090,0.00,VWS V14.01,2013-01-24 09:44:00,
2013-01-24 04:49:00,10.1,8.2,30.16,West,263,0.0,0.0,92,0.00,,OVC090,0.00,VWS V14.01,2013-01-24 09:49:00,
2013-01-24 04:54:00,10.1,8.2,30.16,West,263,0.0,0.0,92,0.00,,OVC090,0.00,VWS V14.01,2013-01-24 09:54:00,
2013-01-24 04:59:00,9.9,7.9,30.16,West,263,0.0,0.0,92,0.00,,OVC090,0.00,VWS V14.01,2013-01-24 09:59:00,
2013-01-24 05:04:00,9.8,7.8,30.16,West,263,0.0,0.0,92,0.00,,OVC090,0.00,VWS V14.01,2013-01-24 10:04:00,
2013-01-24 05:09:00,10.1,8.1,30.17,West,263,0.0,0.0,92,0.00,,OVC090,0.00,VWS V14.01,2013-01-24 10:09:00,
2013-01-24 05:14:00,10.2,8.2,30.17,West,263,0.0,0.0,92,0.00,,OVC090,0.00,VWS V14.01,2013-01-24 10:14:00,
2013-01-24 05:19:00,10.0,8.0,30.17,West,263,0.0,0.0,92,0.00,,OVC090,0.00,VWS V14.01,2013-01-24 10:19:00,
2013-01-24 05:24:00,10.1,8.1,30.17,West,263,0.0,0.0,92,0.00,,OVC090,0.00,VWS V14.01,2013-01-24 10:24:00,
2013-01-24 05:29:00,10.0,8.1,30.17,West,263,0.0,0.0,92,0.00,,OVC090,0.00,VWS V14.01,2013-01-24 10:29:00,
2013-01-24 05:34:00,9.9,7.9,30.17,West,263,0.0,0.0,92,0.00,,OVC090,0.00,VWS V14.01,2013-01-24 10:34:00,
2013-01-24 05:39:00,10.2,8.1,30.18,West,263,0.0,0.0,91,0.00,,OVC090,0.00,VWS V14.01,2013-01-24 10:39:00,
2013-01-24 05:44:00,10.3,8.1,30.18,West,263,0.0,0.0,91,0.00,,OVC090,0.00,VWS V14.01,2013-01-24 10:44:00,
2013-01-24 05:49:00,10.5,8.1,30.18,West,263,0.0,0.0,90,0.00,,OVC090,0.00,VWS V14.01,2013-01-24 10:49:00,
2013-01-24 05:54:00,10.6,8.1,30.18,West,263,0.0,0.0,90,0.00,,OVC090,0.00,VWS V14.01,2013-01-24 10:54:00,
2013-01-24 05:59:00,10.9,8.3,30.18,West,263,0.0,0.0,89,0.00,,OVC090,0.00,VWS V14.01,2013-01-24 10:59:00,
2013-01-24 06:04:00,11.0,8.4,30.18,West,263,0.0,0.0,89,0.00,,OVC085,0.00,VWS V14.01,2013-01-24 11:04:00,
2013-01-24 06:09:00,11.3,8.6,30.18,West,263,0.0,0.0,89,0.00,,OVC085,0.00,VWS V14.01,2013-01-24 11:09:00,
2013-01-24 06:14:00,10.9,8.2,30.18,West,263,0.0,0.0,89,0.00,,OVC085,0.00,VWS V14.01,2013-01-24 11:14:00,
2013-01-24 06:19:00,11.1,8.4,30.19,West,263,0.0,0.0,88,0.00,,OVC085,0.00,VWS V14.01,2013-01-24 11:19:00,
2013-01-24 06:24:00,11.0,8.1,30.19,West,263,0.0,0.0,88,0.00,,OVC085,0.00,VWS V14.01,2013-01-24 11:24:00,
2013-01-24 06:29:00,10.9,8.0,30.19,West,263,0.0,0.0,88,0.00,,OVC085,0.00,VWS V14.01,2013-01-24 11:29:00,
2013-01-24 06:34:00,11.0,8.0,30.19,West,263,0.0,0.0,88,0.00,,OVC085,0.00,VWS V14.01,2013-01-24 11:34:00,
2013-01-24 06:39:00,10.8,7.8,30.19,West,263,0.0,0.0,87,0.00,,OVC085,0.00,VWS V14.01,2013-01-24 11:39:00,
2013-01-24 06:44:00,10.5,7.5,30.19,West,263,0.0,0.0,87,0.00,,OVC085,0.00,VWS V14.01,2013-01-24 11:44:00,
2013-01-24 06:49:00,10.6,7.6,30.20,West,263,0.0,0.0,88,0.00,,OVC085,0.00,VWS V14.01,2013-01-24 11:49:00,
2013-01-24 06:54:00,10.7,7.8,30.20,West,263,0.0,0.0,88,0.00,,OVC085,0.00,VWS V14.01,2013-01-24 11:54:00,
2013-01-24 06:59:00,10.3,7.4,30.20,West,263,0.0,0.0,88,0.00,,OVC085,0.00,VWS V14.01,2013-01-24 11:59:00,
2013-01-24 07:04:00,10.2,7.3,30.20,West,263,0.0,0.0,88,0.00,,OVC095,0.00,VWS V14.01,2013-01-24 12:04:00,
2013-01-24 07:09:00,10.1,7.2,30.20,West,263,0.0,0.0,88,0.00,,OVC095,0.00,VWS V14.01,2013-01-24 12:09:00,
2013-01-24 07:14:00,10.0,7.1,30.20,West,263,0.0,0.0,88,0.00,,OVC095,0.00,VWS V14.01,2013-01-24 12:14:00,
2013-01-24 07:19:00,9.9,7.0,30.20,West,263,0.0,0.0,88,0.00,,OVC095,0.00,VWS V14.01,2013-01-24 12:19:00,
2013-01-24 07:24:00,9.7,6.9,30.21,West,263,0.0,0.0,88,0.00,,OVC095,0.00,VWS V14.01,2013-01-24 12:24:00,
2013-01-24 07:29:00,9.6,6.8,30.21,West,263,0.0,0.0,88,0.00,,OVC095,0.00,VWS V14.01,2013-01-24 12:29:00,
2013-01-24 07:34:00,9.9,7.1,30.21,West,263,0.0,0.0,88,0.00,,OVC095,0.00,VWS V14.01,2013-01-24 12:34:00,
2013-01-24 07:39:00,9.5,6.7,30.21,West,263,0.0,0.0,88,0.00,,OVC095,0.00,VWS V14.01,2013-01-24 12:39:00,
2013-01-24 07:44:00,9.7,6.9,30.21,West,263,0.0,0.0,88,0.00,,OVC095,0.00,VWS V14.01,2013-01-24 12:44:00,
2013-01-24 07:49:00,9.8,7.0,30.22,West,263,0.0,0.0,88,0.00,,OVC095,0.00,VWS V14.01,2013-01-24 12:49:00,
2013-01-24 07:54:00,9.8,7.0,30.22,West,263,0.0,0.0,88,0.00,,OVC095,0.00,VWS V14.01,2013-01-24 12:54:00,
2013-01-24 07:59:00,9.8,7.0,30.22,West,263,0.0,0.0,88,0.00,,OVC095,0.00,VWS V14.01,2013-01-24 12:59:00,
2013-01-24 08:04:00,10.0,7.2,30.22,West,263,0.0,0.0,88,0.00,,CLR,0.00,VWS V14.01,2013-01-24 13:04:00,
2013-01-24 08:09:00,10.2,7.2,30.22,West,263,0.0,0.0,87,0.00,,CLR,0.00,VWS V14.01,2013-01-24 13:09:00,
2013-01-24 08:14:00,10.7,7.5,30.23,West,262,0.0,3.1,87,0.00,,CLR,0.00,VWS V14.01,2013-01-24 13:14:00,
2013-01-24 08:19:00,11.0,7.6,30.23,West,262,0.0,0.0,86,0.00,,CLR,0.00,VWS V14.01,2013-01-24 13:19:00,
2013-01-24 08:24:00,11.3,7.6,30.23,West,262,0.0,0.0,85,0.00,,CLR,0.00,VWS V14.01,2013-01-24 13:24:00,
2013-01-24 08:29:00,11.6,7.5,30.23,WNW,301,4.2,4.6,83,0.00,,CLR,0.00,VWS V14.01,2013-01-24 13:29:00,
2013-01-24 08:34:00,12.0,7.7,30.24,West,276,0.0,4.5,82,0.00,,CLR,0.00,VWS V14.01,2013-01-24 13:34:00,
2013-01-24 08:39:00,12.2,7.5,30.24,WNW,291,2.3,5.7,81,0.00,,CLR,0.00,VWS V14.01,2013-01-24 13:39:00,
2013-01-24 08:44:00,12.4,7.5,30.24,WNW,300,2.4,2.7,80,0.00,,CLR,0.00,VWS V14.01,2013-01-24 13:44:00,
2013-01-24 08:49:00,12.7,7.9,30.24,WSW,249,1.6,3.4,81,0.00,,CLR,0.00,VWS V14.01,2013-01-24 13:49:00,
2013-01-24 08:54:00,12.5,7.4,30.24,NW,325,1.6,4.9,80,0.00,,CLR,0.00,VWS V14.01,2013-01-24 13:54:00,
2013-01-24 08:59:00,13.2,7.9,30.25,NW,314,2.1,2.4,79,0.00,,CLR,0.00,VWS V14.01,2013-01-24 13:59:00,
2013-01-24 09:04:00,13.2,7.8,30.25,WSW,249,2.2,4.6,79,0.00,,CLR,0.00,VWS V14.01,2013-01-24 14:04:00,
2013-01-24 09:09:00,13.4,7.7,30.25,NNW,336,2.7,7.3,78,0.00,,CLR,0.00,VWS V14.01,2013-01-24 14:09:00,
2013-01-24 09:14:00,13.7,8.1,30.26,West,262,1.4,1.7,78,0.00,,CLR,0.00,VWS V14.01,2013-01-24 14:14:00,
2013-01-24 09:19:00,14.0,8.4,30.26,West,263,3.9,5.0,78,0.00,,CLR,0.00,VWS V14.01,2013-01-24 14:19:00,
2013-01-24 09:24:00,14.3,8.1,30.26,SW,232,0.0,6.5,76,0.00,,CLR,0.00,VWS V14.01,2013-01-24 14:24:00,
2013-01-24 09:29:00,14.1,7.2,30.26,NNW,347,2.1,7.6,74,0.00,,CLR,0.00,VWS V14.01,2013-01-24 14:29:00,
2013-01-24 09:34:00,14.3,7.4,30.27,WNW,283,3.2,5.6,73,0.00,,CLR,0.00,VWS V14.01,2013-01-24 14:34:00,
2013-01-24 09:39:00,14.5,7.9,30.27,NW,311,0.0,5.6,75,0.00,,CLR,0.00,VWS V14.01,2013-01-24 14:39:00,
2013-01-24 09:44:00,15.2,8.2,30.27,SW,235,0.0,0.0,73,0.00,,CLR,0.00,VWS V14.01,2013-01-24 14:44:00,
2013-01-24 09:49:00,15.1,7.7,30.27,NW,323,3.3,5.6,72,0.00,,CLR,0.00,VWS V14.01,2013-01-24 14:49:00,
2013-01-24 09:54:00,15.2,7.9,30.27,WNW,287,0.0,8.3,72,0.00,,CLR,0.00,VWS V14.01,2013-01-24 14:54:00,
2013-01-24 09:59:00,15.4,7.3,30.27,WNW,288,5.6,5.6,70,0.00,,CLR,0.00,VWS V14.01,2013-01-24 14:59:00,
2013-01-24 10:04:00,15.3,7.0,30.28,West,281,3.0,7.8,69,0.00,,CLR,0.00,VWS V14.01,2013-01-24 15:04:00,
2013-01-24 10:09:00,15.3,6.9,30.28,NW,304,6.0,9.8,69,0.00,,CLR,0.00,VWS V14.01,2013-01-24 15:09:00,
2013-01-24 10:14:00,15.8,7.6,30.28,WNW,284,6.8,6.8,69,0.00,,CLR,0.00,VWS V14.01,2013-01-24 15:14:00,
2013-01-24 10:19:00,15.7,7.1,30.28,WNW,285,4.1,7.8,68,0.00,,CLR,0.00,VWS V14.01,2013-01-24 15:19:00,
2013-01-24 10:24:00,16.0,7.3,30.29,West,263,0.0,7.8,68,0.00,,CLR,0.00,VWS V14.01,2013-01-24 15:24:00,
2013-01-24 10:29:00,16.5,7.7,30.29,NW,305,0.0,0.0,68,0.00,,CLR,0.00,VWS V14.01,2013-01-24 15:29:00,
2013-01-24 10:34:00,17.1,8.1,30.29,West,271,4.7,7.8,67,0.00,,CLR,0.00,VWS V14.01,2013-01-24 15:34:00,
2013-01-24 10:39:00,17.5,8.6,30.29,West,264,0.0,7.8,68,0.00,,CLR,0.00,VWS V14.01,2013-01-24 15:39:00,
2013-01-24 10:44:00,17.0,7.2,30.30,NW,309,2.2,3.9,65,0.00,,CLR,0.00,VWS V14.01,2013-01-24 15:44:00,
2013-01-24 10:49:00,17.3,7.6,30.30,WNW,300,3.2,6.7,65,0.00,,CLR,0.00,VWS V14.01,2013-01-24 15:49:00,
2013-01-24 10:54:00,17.3,7.2,30.29,NW,315,4.2,8.9,64,0.00,,CLR,0.00,VWS V14.01,2013-01-24 15:54:00,
2013-01-24 10:59:00,17.3,7.3,30.29,WNW,290,5.6,6.4,64,0.00,,CLR,0.00,VWS V14.01,2013-01-24 15:59:00,
2013-01-24 11:04:00,18.0,8.1,30.29,WNW,302,2.1,8.5,65,0.00,,FEW039,0.00,VWS V14.01,2013-01-24 16:04:00,
2013-01-24 11:09:00,18.1,7.5,30.29,WNW,287,1.7,8.5,63,0.00,,FEW039,0.00,VWS V14.01,2013-01-24 16:09:00,
2013-01-24 11:14:00,17.7,6.5,30.29,NW,308,4.8,5.3,61,0.00,,FEW039,0.00,VWS V14.01,2013-01-24 16:14:00,
2013-01-24 11:19:00,18.1,7.1,30.29,NNW,340,2.6,6.8,62,0.00,,FEW039,0.00,VWS V14.01,2013-01-24 16:19:00,
2013-01-24 11:24:00,18.8,7.4,30.29,WNW,292,2.7,8.1,60,0.00,,FEW039,0.00,VWS V14.01,2013-01-24 16:24:00,
2013-01-24 11:29:00,18.6,6.0,30.29,WNW,297,5.3,7.4,57,0.00,,FEW039,0.00,VWS V14.01,2013-01-24 16:29:00,
2013-01-24 11:34:00,19.2,6.8,30.29,NW,305,0.0,7.7,58,0.00,,FEW039,0.00,VWS V14.01,2013-01-24 16:34:00,
2013-01-24 11:39:00,19.4,6.9,30.29,WNW,295,6.0,9.2,58,0.00,,FEW039,0.00,VWS V14.01,2013-01-24 16:39:00,
2013-01-24 11:44:00,19.8,7.1,30.29,WNW,298,7.5,7.9,57,0.00,,FEW039,0.00,VWS V14.01,2013-01-24 16:44:00,
2013-01-24 11:49:00,19.7,7.0,30.29,NW,309,4.3,11.7,57,0.00,,FEW039,0.00,VWS V14.01,2013-01-24 16:49:00,
2013-01-24 11:54:00,19.5,6.6,30.29,WNW,298,0.4,11.7,57,0.00,,FEW039,0.00,VWS V14.01,2013-01-24 16:54:00,
2013-01-24 11:59:00,19.2,6.9,30.29,WSW,255,4.9,5.5,58,0.00,,FEW039,0.00,VWS V14.01,2013-01-24 16:59:00,
2013-01-24 12:04:00,19.1,7.1,30.29,West,281,4.0,9.9,59,0.00,,FEW043,0.00,VWS V14.01,2013-01-24 17:04:00,
2013-01-24 12:09:00,19.5,6.8,30.29,West,281,3.9,11.5,57,0.00,,FEW043,0.00,VWS V14.01,2013-01-24 17:09:00,
2013-01-24 12:14:00,19.2,5.9,30.29,WNW,283,8.0,8.6,56,0.00,,FEW043,0.00,VWS V14.01,2013-01-24 17:14:00,
2013-01-24 12:19:00,18.8,5.8,30.29,West,278,7.7,11.4,56,0.00,,FEW043,0.00,VWS V14.01,2013-01-24 17:19:00,
2013-01-24 12:24:00,19.0,6.3,30.30,NNW,328,6.5,11.4,57,0.00,,FEW043,0.00,VWS V14.01,2013-01-24 17:24:00,
2013-01-24 12:29:00,19.1,6.0,30.29,WNW,291,5.7,7.3,56,0.00,,FEW043,0.00,VWS V14.01,2013-01-24 17:29:00,
2013-01-24 12:34:00,19.5,6.2,30.30,WNW,285,4.1,8.7,56,0.00,,FEW043,0.00,VWS V14.01,2013-01-24 17:34:00,
2013-01-24 12:39:00,19.6,5.7,30.30,WNW,302,4.7,12.0,54,0.00,,FEW043,0.00,VWS V14.01,2013-01-24 17:39:00,
2013-01-24 12:44:00,19.4,4.8,30.30,WNW,291,7.1,9.4,52,0.00,,FEW043,0.00,VWS V14.01,2013-01-24 17:44:00,
2013-01-24 12:49:00,19.7,5.2,30.30,NW,311,5.3,10.9,52,0.00,,FEW043,0.00,VWS V14.01,2013-01-24 17:49:00,
2013-01-24 12:54:00,20.0,5.4,30.30,West,277,4.0,11.7,52,0.00,,FEW043,0.00,VWS V14.01,2013-01-24 17:54:00,
2013-01-24 12:59:00,20.5,5.2,30.30,NNW,343,5.8,5.8,51,0.00,,FEW043,0.00,VWS V14.01,2013-01-24 17:59:00,
2013-01-24 13:04:00,20.9,5.7,30.30,NW,311,6.5,10.0,51,0.00,,CLR,0.00,VWS V14.01,2013-01-24 18:04:00,
2013-01-24 13:09:00,21.2,5.5,30.30,West,280,3.6,12.9,50,0.00,,CLR,0.00,VWS V14.01,2013-01-24 18:09:00,
2013-01-24 13:14:00,21.3,5.3,30.30,NW,309,6.3,6.8,49,0.00,,CLR,0.00,VWS V14.01,2013-01-24 18:14:00,
2013-01-24 13:19:00,21.9,5.9,30.29,North,6,6.3,10.3,49,0.00,,CLR,0.00,VWS V14.01,2013-01-24 18:19:00,
2013-01-24 13:24:00,22.6,5.6,30.29,WNW,285,9.6,10.3,47,0.00,,CLR,0.00,VWS V14.01,2013-01-24 18:24:00,
2013-01-24 13:29:00,21.1,3.0,30.30,WNW,285,4.7,8.1,45,0.00,,CLR,0.00,VWS V14.01,2013-01-24 18:29:00,
2013-01-24 13:34:00,20.8,3.5,30.30,WSW,250,4.8,12.3,46,0.00,,CLR,0.00,VWS V14.01,2013-01-24 18:34:00,
2013-01-24 13:39:00,21.2,3.8,30.30,WNW,283,9.0,12.3,46,0.00,,CLR,0.00,VWS V14.01,2013-01-24 18:39:00,
2013-01-24 13:44:00,21.6,3.7,30.30,West,267,8.8,8.8,45,0.00,,CLR,0.00,VWS V14.01,2013-01-24 18:44:00,
2013-01-24 13:49:00,21.1,2.9,30.31,West,269,7.1,13.7,44,0.00,,CLR,0.00,VWS V14.01,2013-01-24 18:49:00,
2013-01-24 13:54:00,20.7,2.8,30.31,NW,311,6.0,14.5,45,0.00,,CLR,0.00,VWS V14.01,2013-01-24 18:54:00,
2013-01-24 13:59:00,21.1,2.9,30.30,West,262,8.1,8.8,44,0.00,,CLR,0.00,VWS V14.01,2013-01-24 18:59:00,
2013-01-24 14:04:00,21.5,2.6,30.31,NNW,336,7.1,13.4,43,0.00,,BKN060,0.00,VWS V14.01,2013-01-24 19:04:00,
2013-01-24 14:09:00,21.6,2.7,30.31,WNW,295,1.9,13.4,43,0.00,,BKN060,0.00,VWS V14.01,2013-01-24 19:09:00,
2013-01-24 14:14:00,21.3,2.4,30.31,NNW,342,7.0,7.2,43,0.00,,BKN060,0.00,VWS V14.01,2013-01-24 19:14:00,
2013-01-24 14:19:00,22.2,3.5,30.31,WNW,292,2.2,7.2,44,0.00,,BKN060,0.00,VWS V14.01,2013-01-24 19:19:00,
2013-01-24 14:24:00,22.2,3.2,30.32,NNW,329,9.2,13.5,43,0.00,,BKN060,0.00,VWS V14.01,2013-01-24 19:24:00,
2013-01-24 14:29:00,21.9,3.2,30.32,West,281,11.7,12.0,44,0.00,,BKN060,0.00,VWS V14.01,2013-01-24 19:29:00,
2013-01-24 14:34:00,21.5,3.0,30.32,WNW,298,4.2,12.5,44,0.00,,BKN060,0.00,VWS V14.01,2013-01-24 19:34:00,
2013-01-24 14:39:00,21.3,2.9,30.32,NW,305,6.8,13.9,44,0.00,,BKN060,0.00,VWS V14.01,2013-01-24 19:39:00,
2013-01-24 14:44:00,21.2,2.7,30.32,West,266,6.9,8.1,44,0.00,,BKN060,0.00,VWS V14.01,2013-01-24 19:44:00,
2013-01-24 14:49:00,21.1,2.7,30.33,WNW,301,8.9,12.1,44,0.00,,BKN060,0.00,VWS V14.01,2013-01-24 19:49:00,
2013-01-24 14:54:00,21.0,3.0,30.33,NW,323,4.7,15.4,45,0.00,,BKN060,0.00,VWS V14.01,2013-01-24 19:54:00,
2013-01-24 14:59:00,20.9,3.2,30.33,WNW,301,11.7,12.0,46,0.00,,BKN060,0.00,VWS V14.01,2013-01-24 19:59:00,
2013-01-24 15:04:00,20.5,2.5,30.33,NW,311,4.5,14.4,45,0.00,,SCT055,0.00,VWS V14.01,2013-01-24 20:04:00,
2013-01-24 15:09:00,20.4,2.6,30.33,West,277,6.0,14.4,45,0.00,,SCT055,0.00,VWS V14.01,2013-01-24 20:09:00,
2013-01-24 15:14:00,20.4,3.0,30.34,WNW,297,4.9,7.5,46,0.00,,SCT055,0.00,VWS V14.01,2013-01-24 20:14:00,
2013-01-24 15:19:00,20.8,3.3,30.34,WNW,287,4.9,12.1,46,0.00,,SCT055,0.00,VWS V14.01,2013-01-24 20:19:00,
2013-01-24 15:24:00,20.9,3.0,30.34,NNW,329,7.2,12.1,45,0.00,,SCT055,0.00,VWS V14.01,2013-01-24 20:24:00,
2013-01-24 15:29:00,20.7,2.6,30.34,WNW,284,4.7,4.7,45,0.00,,SCT055,0.00,VWS V14.01,2013-01-24 20:29:00,
2013-01-24 15:34:00,20.8,2.8,30.34,WNW,288,5.3,9.8,45,0.00,,SCT055,0.00,VWS V14.01,2013-01-24 20:34:00,
2013-01-24 15:39:00,20.8,2.4,30.35,WNW,288,6.6,18.7,44,0.00,,SCT055,0.00,VWS V14.01,2013-01-24 20:39:00,
2013-01-24 15:44:00,20.9,2.9,30.36,NW,316,8.1,8.3,45,0.00,,SCT055,0.00,VWS V14.01,2013-01-24 20:44:00,
2013-01-24 15:49:00,21.0,2.9,30.35,NNW,332,6.8,14.6,45,0.00,,SCT055,0.00,VWS V14.01,2013-01-24 20:49:00,
2013-01-24 15:54:00,21.1,3.1,30.36,West,274,5.8,14.6,45,0.00,,SCT055,0.00,VWS V14.01,2013-01-24 20:54:00,
2013-01-24 15:59:00,20.8,3.1,30.36,NNE,30,2.9,5.7,46,0.00,,SCT055,0.00,VWS V14.01,2013-01-24 20:59:00,
2013-01-24 16:04:00,20.6,3.4,30.36,NW,316,4.8,9.0,47,0.00,,BKN060,0.00,VWS V14.01,2013-01-24 21:04:00,
2013-01-24 16:09:00,20.5,3.2,30.36,NNW,342,5.7,16.8,46,0.00,,BKN060,0.00,VWS V14.01,2013-01-24 21:09:00,
2013-01-24 16:15:00,20.4,3.0,30.36,West,270,8.4,8.4,46,0.00,,BKN060,0.00,VWS V14.01,2013-01-24 21:15:00,
2013-01-24 16:20:00,20.0,2.8,30.36,West,273,7.2,13.9,46,0.00,,BKN060,0.00,VWS V14.01,2013-01-24 21:20:00,
2013-01-24 16:25:00,20.3,3.6,30.37,West,271,2.5,13.9,48,0.00,,BKN060,0.00,VWS V14.01,2013-01-24 21:25:00,
2013-01-24 16:30:00,20.2,3.5,30.37,North,6,1.4,4.7,48,0.00,,BKN060,0.00,VWS V14.01,2013-01-24 21:30:00,
2013-01-24 16:35:00,20.1,3.3,30.37,NNW,329,5.6,15.0,48,0.00,,BKN060,0.00,VWS V14.01,2013-01-24 21:35:00,
2013-01-24 16:40:00,20.3,3.8,30.37,WNW,292,5.5,15.0,48,0.00,,BKN060,0.00,VWS V14.01,2013-01-24 21:40:00,
2013-01-24 16:45:00,19.9,3.4,30.38,West,277,9.0,9.0,48,0.00,,BKN060,0.00,VWS V14.01,2013-01-24 21:45:00,
2013-01-24 16:49:00,19.5,3.2,30.38,WNW,302,8.6,11.7,48,0.00,,BKN060,0.00,VWS V14.01,2013-01-24 21:49:00,
2013-01-24 16:54:00,19.6,3.7,30.38,WNW,283,2.2,11.7,49,0.00,,BKN060,0.00,VWS V14.01,2013-01-24 21:54:00,
2013-01-24 16:59:00,19.6,3.8,30.38,WNW,294,3.7,4.2,50,0.00,,BKN060,0.00,VWS V14.01,2013-01-24 21:59:00,
2013-01-24 17:04:00,19.4,3.4,30.38,West,281,5.2,12.2,49,0.00,,CLR,0.00,VWS V14.01,2013-01-24 22:04:00,
2013-01-24 17:09:00,19.4,3.5,30.38,WNW,297,1.7,12.2,49,0.00,,CLR,0.00,VWS V14.01,2013-01-24 22:09:00,
2013-01-24 17:14:00,19.5,3.7,30.38,NW,325,6.5,6.7,50,0.00,,CLR,0.00,VWS V14.01,2013-01-24 22:14:00,
2013-01-24 17:19:00,19.3,3.6,30.39,WNW,294,1.4,9.2,50,0.00,,CLR,0.00,VWS V14.01,2013-01-24 22:19:00,
2013-01-24 17:25:00,19.2,3.7,30.39,West,260,6.6,9.2,50,0.00,,CLR,0.00,VWS V14.01,2013-01-24 22:25:00,
2013-01-24 17:30:00,19.2,4.0,30.39,West,271,5.8,5.8,51,0.00,,CLR,0.00,VWS V14.01,2013-01-24 22:30:00,
2013-01-24 17:35:00,19.0,4.0,30.39,West,263,0.0,6.5,51,0.00,,CLR,0.00,VWS V14.01,2013-01-24 22:35:00,
2013-01-24 17:40:00,18.9,4.0,30.40,West,263,2.6,6.5,52,0.00,,CLR,0.00,VWS V14.01,2013-01-24 22:40:00,
2013-01-24 17:45:00,19.1,4.2,30.40,WNW,290,0.0,0.0,52,0.00,,CLR,0.00,VWS V14.01,2013-01-24 22:45:00,
2013-01-24 17:50:00,18.9,4.1,30.41,SW,235,1.9,4.0,52,0.00,,CLR,0.00,VWS V14.01,2013-01-24 22:50:00,
2013-01-24 17:55:00,18.8,4.2,30.41,West,278,2.7,5.3,52,0.00,,CLR,0.00,VWS V14.01,2013-01-24 22:55:00,
2013-01-24 18:00:00,18.7,4.4,30.41,WNW,297,0.0,0.0,53,0.00,,CLR,0.00,VWS V14.01,2013-01-24 23:00:00,
2013-01-24 18:05:00,18.8,4.6,30.41,WNW,297,0.0,0.0,53,0.00,,CLR,0.00,VWS V14.01,2013-01-24 23:05:00,
2013-01-24 18:10:00,18.6,4.5,30.41,WNW,297,0.0,0.0,54,0.00,,CLR,0.00,VWS V14.01,2013-01-24 23:10:00,
2013-01-24 18:15:00,18.3,4.4,30.41,WNW,297,0.0,0.0,54,0.00,,CLR,0.00,VWS V14.01,2013-01-24 23:15:00,
2013-01-24 18:20:00,18.4,4.8,30.42,West,262,1.7,4.2,55,0.00,,CLR,0.00,VWS V14.01,2013-01-24 23:20:00,
2013-01-24 18:25:00,18.2,4.8,30.42,SW,228,4.2,6.2,55,0.00,,CLR,0.00,VWS V14.01,2013-01-24 23:25:00,
2013-01-24 18:30:00,18.4,5.0,30.42,West,274,5.0,5.0,55,0.00,,CLR,0.00,VWS V14.01,2013-01-24 23:30:00,
2013-01-24 18:35:00,18.4,5.1,30.42,West,259,1.0,5.5,55,0.00,,CLR,0.00,VWS V14.01,2013-01-24 23:35:00,
2013-01-24 18:40:00,18.2,5.2,30.43,WNW,291,2.6,5.5,56,0.00,,CLR,0.00,VWS V14.01,2013-01-24 23:40:00,
2013-01-24 18:45:00,18.4,5.4,30.43,West,264,4.7,4.8,56,0.00,,CLR,0.00,VWS V14.01,2013-01-24 23:45:00,
2013-01-24 18:50:00,18.5,5.7,30.43,West,270,5.3,6.9,57,0.00,,CLR,0.00,VWS V14.01,2013-01-24 23:50:00,
2013-01-24 18:55:00,18.3,5.5,30.43,West,266,0.0,7.1,57,0.00,,CLR,0.00,VWS V14.01,2013-01-24 23:55:00,
2013-01-24 19:00:00,18.4,5.7,30.43,West,266,0.0,0.0,57,0.00,,CLR,0.00,VWS V14.01,2013-01-25 00:00:00,
2013-01-24 19:05:00,18.3,5.7,30.44,West,266,0.0,0.0,57,0.00,,CLR,0.00,VWS V14.01,2013-01-25 00:05:00,
2013-01-24 19:10:00,17.9,5.3,30.44,West,266,0.0,0.0,57,0.00,,CLR,0.00,VWS V14.01,2013-01-25 00:10:00,
2013-01-24 19:15:00,18.0,5.5,30.44,West,266,0.0,0.0,58,0.00,,CLR,0.00,VWS V14.01,2013-01-25 00:15:00,
2013-01-24 19:20:00,17.8,5.5,30.44,West,266,0.0,0.0,58,0.00,,CLR,0.00,VWS V14.01,2013-01-25 00:20:00,
2013-01-24 19:25:00,17.3,5.6,30.44,West,266,0.0,0.0,59,0.00,,CLR,0.00,VWS V14.01,2013-01-25 00:25:00,
2013-01-24 19:30:00,16.8,5.4,30.44,West,266,0.0,0.0,60,0.00,,CLR,0.00,VWS V14.01,2013-01-25 00:30:00,
2013-01-24 19:35:00,16.5,5.8,30.44,West,266,0.0,0.0,62,0.00,,CLR,0.00,VWS V14.01,2013-01-25 00:35:00,
2013-01-24 19:40:00,16.3,5.9,30.44,West,266,0.0,0.0,63,0.00,,CLR,0.00,VWS V14.01,2013-01-25 00:40:00,
2013-01-24 19:45:00,16.1,5.6,30.44,West,266,0.0,0.0,63,0.00,,CLR,0.00,VWS V14.01,2013-01-25 00:45:00,
2013-01-24 19:50:00,16.1,5.5,30.44,West,266,0.0,0.0,62,0.00,,CLR,0.00,VWS V14.01,2013-01-25 00:50:00,
2013-01-24 19:55:00,16.1,5.6,30.44,West,266,0.0,0.0,62,0.00,,CLR,0.00,VWS V14.01,2013-01-25 00:55:00,
2013-01-24 20:00:00,16.0,5.4,30.45,West,266,0.0,0.0,62,0.00,,CLR,0.00,VWS V14.01,2013-01-25 01:00:00,
2013-01-24 20:05:00,16.3,5.5,30.44,WSW,243,0.0,2.9,62,0.00,,CLR,0.00,VWS V14.01,2013-01-25 01:05:00,
2013-01-24 20:10:00,16.6,5.5,30.45,SW,224,3.4,5.1,61,0.00,,CLR,0.00,VWS V14.01,2013-01-25 01:10:00,
2013-01-24 20:15:00,16.7,5.5,30.45,WSW,256,0.0,0.0,61,0.00,,CLR,0.00,VWS V14.01,2013-01-25 01:15:00,
2013-01-24 20:20:00,17.1,5.5,30.45,West,260,2.1,5.7,60,0.00,,CLR,0.00,VWS V14.01,2013-01-25 01:20:00,
2013-01-24 20:25:00,17.3,5.4,30.45,WSW,252,2.1,7.5,59,0.00,,CLR,0.00,VWS V14.01,2013-01-25 01:25:00,
2013-01-24 20:30:00,17.5,5.6,30.45,West,274,4.7,7.5,59,0.00,,CLR,0.00,VWS V14.01,2013-01-25 01:30:00,
2013-01-24 20:35:00,17.3,5.7,30.45,West,260,0.0,7.5,60,0.00,,CLR,0.00,VWS V14.01,2013-01-25 01:35:00,
2013-01-24 20:40:00,16.9,5.4,30.45,West,273,3.5,7.5,60,0.00,,CLR,0.00,VWS V14.01,2013-01-25 01:40:00,
2013-01-24 20:45:00,17.0,5.6,30.45,NW,304,0.0,0.0,60,0.00,,CLR,0.00,VWS V14.01,2013-01-25 01:45:00,
2013-01-24 20:50:00,16.7,5.5,30.45,WNW,295,0.0,2.9,61,0.00,,CLR,0.00,VWS V14.01,2013-01-25 01:50:00,
2013-01-24 20:55:00,16.7,5.6,30.45,West,276,0.0,2.9,61,0.00,,CLR,0.00,VWS V14.01,2013-01-25 01:55:00,
2013-01-24 21:00:00,16.4,5.4,30.45,West,276,0.0,0.0,61,0.00,,CLR,0.00,VWS V14.01,2013-01-25 02:00:00,
2013-01-24 21:05:00,16.3,5.4,30.45,West,276,0.0,0.0,62,0.00,,CLR,0.00,VWS V14.01,2013-01-25 02:05:00,
2013-01-24 21:10:00,16.3,5.5,30.44,West,276,0.0,0.0,62,0.00,,CLR,0.00,VWS V14.01,2013-01-25 02:10:00,
2013-01-24 21:15:00,16.0,5.4,30.45,West,276,0.0,0.0,62,0.00,,CLR,0.00,VWS V14.01,2013-01-25 02:15:00,
2013-01-24 21:20:00,15.9,5.3,30.46,West,276,0.0,0.0,62,0.00,,CLR,0.00,VWS V14.01,2013-01-25 02:20:00,
2013-01-24 21:25:00,16.1,5.5,30.46,WSW,250,3.2,3.7,62,0.00,,CLR,0.00,VWS V14.01,2013-01-25 02:25:00,
2013-01-24 21:30:00,15.8,5.3,30.45,WNW,283,0.2,2.9,63,0.00,,CLR,0.00,VWS V14.01,2013-01-25 02:30:00,
2013-01-24 21:35:00,15.7,5.0,30.45,West,277,3.0,4.9,62,0.00,,CLR,0.00,VWS V14.01,2013-01-25 02:35:00,
2013-01-24 21:40:00,16.2,5.2,30.45,West,280,2.6,4.9,61,0.00,,CLR,0.00,VWS V14.01,2013-01-25 02:40:00,
2013-01-24 21:45:00,16.0,5.1,30.45,West,263,4.3,4.7,62,0.00,,CLR,0.00,VWS V14.01,2013-01-25 02:45:00,
2013-01-24 21:50:00,16.0,5.0,30.45,West,274,4.8,6.8,61,0.00,,CLR,0.00,VWS V14.01,2013-01-25 02:50:00,
2013-01-24 21:55:00,16.1,5.1,30.45,West,280,3.2,8.3,61,0.00,,CLR,0.00,VWS V14.01,2013-01-25 02:55:00,
2013-01-24 22:00:00,15.7,4.4,30.45,West,270,6.1,9.4,60,0.00,,CLR,0.00,VWS V14.01,2013-01-25 03:00:00,
2013-01-24 22:05:00,16.0,4.4,30.45,West,262,5.2,10.9,60,0.00,,CLR,0.00,VWS V14.01,2013-01-25 03:05:00,
2013-01-24 22:10:00,15.9,4.6,30.45,WNW,285,3.2,10.9,60,0.00,,CLR,0.00,VWS V14.01,2013-01-25 03:10:00,
2013-01-24 22:15:00,16.1,4.9,30.45,WNW,283,4.2,4.8,61,0.00,,CLR,0.00,VWS V14.01,2013-01-25 03:15:00,
2013-01-24 22:20:00,15.6,4.5,30.45,West,263,3.9,8.9,61,0.00,,CLR,0.00,VWS V14.01,2013-01-25 03:20:00,
2013-01-24 22:25:00,15.4,4.3,30.45,WSW,253,1.2,8.9,61,0.00,,CLR,0.00,VWS V14.01,2013-01-25 03:25:00,
2013-01-24 22:30:00,15.7,4.7,30.45,West,276,6.2,6.9,61,0.00,,CLR,0.00,VWS V14.01,2013-01-25 03:30:00,
2013-01-24 22:35:00,15.5,4.1,30.46,West,271,4.2,9.3,60,0.00,,CLR,0.00,VWS V14.01,2013-01-25 03:35:00,
2013-01-24 22:40:00,15.5,3.9,30.46,NW,308,7.5,9.7,60,0.00,,CLR,0.00,VWS V14.01,2013-01-25 03:40:00,
2013-01-24 22:45:00,15.7,4.1,30.46,West,260,6.6,6.6,59,0.00,,CLR,0.00,VWS V14.01,2013-01-25 03:45:00,
2013-01-24 22:50:00,15.5,4.0,30.46,West,260,5.9,7.8,60,0.00,,CLR,0.00,VWS V14.01,2013-01-25 03:50:00,
2013-01-24 22:55:00,15.2,3.5,30.45,WSW,243,6.2,8.3,59,0.00,,CLR,0.00,VWS V14.01,2013-01-25 03:55:00,
2013-01-24 23:00:00,15.1,3.5,30.45,NW,311,4.2,6.5,59,0.00,,CLR,0.00,VWS V14.01,2013-01-25 04:00:00,
2013-01-24 23:05:00,15.2,3.6,30.46,WNW,288,3.9,13.9,59,0.00,,CLR,0.00,VWS V14.01,2013-01-25 04:05:00,
2013-01-24 23:10:00,14.9,3.4,30.46,WNW,287,5.2,13.9,60,0.00,,CLR,0.00,VWS V14.01,2013-01-25 04:10:00,
2013-01-24 23:15:00,14.9,3.7,30.46,WNW,287,4.3,4.4,60,0.00,,CLR,0.00,VWS V14.01,2013-01-25 04:15:00,
2013-01-24 23:20:00,14.8,3.7,30.46,West,269,6.5,6.6,61,0.00,,CLR,0.00,VWS V14.01,2013-01-25 04:20:00,
2013-01-24 23:25:00,15.0,3.8,30.46,NW,311,6.7,7.5,60,0.00,,CLR,0.00,VWS V14.01,2013-01-25 04:25:00,
2013-01-24 23:30:00,14.9,3.1,30.46,West,280,4.2,6.6,59,0.00,,CLR,0.00,VWS V14.01,2013-01-25 04:30:00,
2013-01-24 23:35:00,15.0,2.9,30.46,WSW,256,3.8,8.6,58,0.00,,CLR,0.00,VWS V14.01,2013-01-25 04:35:00,
2013-01-24 23:40:00,14.8,3.0,30.46,West,263,4.0,9.8,59,0.00,,CLR,0.00,VWS V14.01,2013-01-25 04:40:00,
2013-01-24 23:45:00,14.7,2.7,30.46,NW,325,7.7,10.1,58,0.00,,CLR,0.00,VWS V14.01,2013-01-25 04:45:00,
2013-01-24 23:50:00,14.5,2.1,30.46,WNW,297,3.2,11.2,57,0.00,,CLR,0.00,VWS V14.01,2013-01-25 04:50:00,
2013-01-24 23:55:00,14.5,1.9,30.46,WNW,284,6.6,11.2,57,0.00,,CLR,0.00,VWS V14.01,2013-01-25 04:55:00,